Time;durP1;ratioP1;P1;durP2;ratioP2;P2;SDS_P1;SDS_P2;PMS_P1;PMS_P2;Temp;Humidity;BMP_temperature;BMP_pressure;BME280_temperature;BME280_humidity;BME280_pressure;Samples;Min_cycle;Max_cycle;Signal;HPM_P1;HPM_P2
2023/10/16 00:01:26;;;;;;;22.63;9.88;;;;;;;19.23;48.58;99029.91;3158862;28;20105;-64
2023/10/16 00:02:59;;;;;;;33.83;10.52;;;;;;;19.24;48.66;99036.84;3158742;28;20056;-64
2023/10/16 00:04:31;;;;;;;32.05;9.93;;;;;;;19.22;48.56;99045.88;3158522;28;20139;-63
2023/10/16 00:06:05;;;;;;;31.65;10.35;;;;;;;19.15;48.81;99056.16;3158286;28;20075;-64
2023/10/16 00:07:36;;;;;;;33.10;9.70;;;;;;;19.09;48.82;99052.28;3158657;28;20052;-64
2023/10/16 00:09:14;;;;;;;35.50;10.40;;;;;;;19.05;48.83;99058.84;3158485;28;20417;-63
2023/10/16 00:10:57;;;;;;;32.30;9.77;;;;;;;19.04;48.61;99058.97;3150158;28;20052;-63
2023/10/16 00:12:29;;;;;;;28.83;10.32;;;;;;;18.96;48.81;99061.47;3158329;28;20169;-64
2023/10/16 00:14:00;;;;;;;25.67;10.75;;;;;;;18.94;48.65;99058.97;3158474;28;20052;-63
2023/10/16 00:15:40;;;;;;;134.48;14.38;;;;;;;18.91;48.80;99066.34;3158813;28;20044;-64
2023/10/16 00:17:13;;;;;;;76.40;11.75;;;;;;;18.85;48.96;99059.81;3145940;28;20044;-64
2023/10/16 00:18:45;;;;;;;72.88;12.77;;;;;;;18.81;48.84;99072.47;3158285;28;20056;-64
2023/10/16 00:20:19;;;;;;;42.70;9.98;;;;;;;18.80;48.69;99068.16;3151895;28;20051;-63
2023/10/16 00:21:52;;;;;;;41.00;10.18;;;;;;;18.78;48.81;99063.97;3153296;28;20108;-64
2023/10/16 00:23:25;;;;;;;37.63;11.25;;;;;;;18.70;48.76;99080.47;3156450;28;20056;-64
2023/10/16 00:24:58;;;;;;;28.58;8.70;;;;;;;18.71;48.96;99081.31;3157831;28;20213;-63
2023/10/16 00:26:30;;;;;;;41.00;9.55;;;;;;;18.71;48.71;99081.31;3157908;28;20064;-63
2023/10/16 00:28:05;;;;;;;29.45;9.63;;;;;;;18.73;48.66;99092.56;3158491;28;20070;-63
2023/10/16 00:29:38;;;;;;;21.38;9.80;;;;;;;18.72;48.62;99091.72;3158319;28;20071;-63
2023/10/16 00:31:08;;;;;;;22.55;9.43;;;;;;;18.68;48.73;99092.97;3157824;28;20083;-64
2023/10/16 00:32:40;;;;;;;28.05;9.95;;;;;;;18.64;48.98;99105.59;3158665;28;20434;-63
2023/10/16 00:34:19;;;;;;;33.95;9.48;;;;;;;18.57;48.89;99086.00;3158256;28;20117;-64
2023/10/16 00:35:51;;;;;;;36.88;9.95;;;;;;;18.52;48.93;99093.53;3157932;28;20047;-64
2023/10/16 00:37:22;;;;;;;23.25;9.00;;;;;;;18.50;48.85;99102.53;3158122;28;20165;-67
2023/10/16 00:38:54;;;;;;;25.77;8.18;;;;;;;18.50;48.83;99102.53;3158465;28;20051;-67
2023/10/16 00:40:35;;;;;;;18.92;8.68;;;;;;;18.52;48.86;99108.50;3156896;28;20101;-67
2023/10/16 00:42:09;;;;;;;26.23;8.68;;;;;;;18.49;48.71;99106.16;3158172;28;20477;-67
2023/10/16 00:43:40;;;;;;;40.25;8.82;;;;;;;18.48;48.56;99118.47;3158058;28;20563;-68
2023/10/16 00:45:12;;;;;;;23.90;8.30;;;;;;;18.42;48.49;99106.66;3157994;28;20086;-68
2023/10/16 00:46:45;;;;;;;17.05;7.30;;;;;;;18.35;48.63;99118.72;3157808;28;20056;-66
2023/10/16 00:48:18;;;;;;;22.27;7.82;;;;;;;18.30;48.65;99133.28;3157861;28;20044;-66
2023/10/16 00:49:49;;;;;;;22.25;7.10;;;;;;;18.24;48.54;99136.47;3155788;28;20055;-65
2023/10/16 00:51:21;;;;;;;36.70;7.47;;;;;;;18.14;48.54;99136.44;3150942;28;20060;-66
2023/10/16 00:52:52;;;;;;;45.78;7.78;;;;;;;18.07;48.48;99138.78;3158107;28;20117;-66
2023/10/16 00:54:30;;;;;;;52.15;7.75;;;;;;;18.04;48.45;99135.56;3157742;28;20044;-65
2023/10/16 00:56:08;;;;;;;21.60;6.78;;;;;;;17.94;48.76;99135.53;3150380;28;20665;-66
2023/10/16 00:57:43;;;;;;;21.98;6.78;;;;;;;17.94;48.59;99138.16;3158578;28;20044;-66
2023/10/16 00:59:16;;;;;;;28.27;7.43;;;;;;;17.90;48.73;99134.13;3157754;28;20052;-65
2023/10/16 01:00:48;;;;;;;21.55;5.97;;;;;;;17.88;48.85;99131.63;3157457;28;20051;-66
2023/10/16 01:02:26;;;;;;;26.90;7.05;;;;;;;17.87;48.93;99145.75;3157755;28;20125;-66
2023/10/16 01:03:58;;;;;;;16.67;6.80;;;;;;;17.88;48.94;99144.78;3157612;28;20563;-66
2023/10/16 01:05:29;;;;;;;16.20;6.18;;;;;;;17.85;48.80;99171.38;3157628;28;20044;-66
2023/10/16 01:07:02;;;;;;;19.15;5.75;;;;;;;17.86;48.83;99161.69;3157674;28;20054;-66
2023/10/16 01:08:34;;;;;;;25.30;5.78;;;;;;;17.77;48.72;99141.38;3157693;28;20052;-66
2023/10/16 01:10:10;;;;;;;27.77;5.82;;;;;;;17.80;48.94;99154.31;3153376;28;20184;-66
2023/10/16 01:11:41;;;;;;;32.33;5.72;;;;;;;17.79;48.69;99158.75;3157379;28;20075;-65
2023/10/16 01:13:16;;;;;;;14.75;5.47;;;;;;;17.77;48.58;99172.97;3157571;28;20509;-66
2023/10/16 01:14:47;;;;;;;23.65;6.85;;;;;;;17.71;49.02;99164.63;3157457;28;20105;-66
2023/10/16 01:16:19;;;;;;;14.23;6.20;;;;;;;17.69;48.80;99174.47;3157453;28;20056;-65
2023/10/16 01:17:50;;;;;;;18.30;6.38;;;;;;;17.67;48.78;99178.19;3157509;28;20478;-65
2023/10/16 01:19:22;;;;;;;65.53;8.20;;;;;;;17.60;49.02;99167.34;3155107;28;20048;-65
2023/10/16 01:20:55;;;;;;;13.68;5.70;;;;;;;17.58;49.04;99174.53;3149791;28;20044;-66
2023/10/16 01:22:29;;;;;;;24.55;6.15;;;;;;;17.55;49.15;99180.06;3150351;28;20056;-66
2023/10/16 01:24:03;;;;;;;21.80;5.80;;;;;;;17.46;49.16;99155.34;3157307;28;20414;-66
2023/10/16 01:25:41;;;;;;;14.68;4.80;;;;;;;17.52;48.98;99186.41;3157336;28;20441;-66
2023/10/16 01:27:25;;;;;;;12.20;4.32;;;;;;;17.48;48.93;99185.00;3157209;28;20054;-66
2023/10/16 01:28:57;;;;;;;13.20;4.72;;;;;;;17.40;48.96;99178.72;3157515;28;20063;-65
2023/10/16 01:30:28;;;;;;;18.00;4.72;;;;;;;17.40;48.67;99197.13;3157504;28;20052;-65
2023/10/16 01:32:00;;;;;;;7.70;3.90;;;;;;;17.37;48.76;99189.50;3157393;28;20059;-66
2023/10/16 01:33:31;;;;;;;15.20;4.15;;;;;;;17.33;48.66;99195.97;3157160;28;20044;-65
2023/10/16 01:35:08;;;;;;;15.80;4.72;;;;;;;17.28;48.67;99207.72;3145250;28;20049;-66
2023/10/16 01:36:45;;;;;;;11.43;3.67;;;;;;;17.26;48.43;99214.06;3144914;28;20048;-66
2023/10/16 01:38:17;;;;;;;9.30;3.92;;;;;;;17.26;48.52;99211.44;3148966;28;20055;-66
2023/10/16 01:39:53;;;;;;;15.68;3.28;;;;;;;17.18;48.41;99227.81;3157534;28;20048;-66
2023/10/16 01:41:25;;;;;;;10.70;2.85;;;;;;;17.11;48.60;99228.47;3156460;28;20680;-66
2023/10/16 01:42:56;;;;;;;24.67;3.22;;;;;;;17.07;48.53;99227.88;3157011;28;20130;-66
2023/10/16 01:44:29;;;;;;;14.88;3.30;;;;;;;17.06;48.37;99231.47;3157392;28;20056;-69
2023/10/16 01:46:04;;;;;;;12.00;2.55;;;;;;;17.05;48.27;99224.53;3157125;28;20509;-68
2023/10/16 01:47:35;;;;;;;9.15;2.55;;;;;;;17.05;47.97;99235.06;3157629;28;20075;-68
2023/10/16 01:49:07;;;;;;;16.15;2.83;;;;;;;17.06;48.08;99237.56;3156502;28;20048;-68
2023/10/16 01:50:39;;;;;;;8.65;2.20;;;;;;;17.06;47.95;99241.97;3150249;28;20051;-68
2023/10/16 01:52:12;;;;;;;21.33;4.47;;;;;;;17.01;47.89;99239.75;3151942;28;20044;-69
2023/10/16 01:53:43;;;;;;;13.40;2.25;;;;;;;17.01;47.70;99246.81;3157411;28;20043;-69
2023/10/16 01:55:17;;;;;;;5.38;2.70;;;;;;;17.02;47.72;99240.56;3157020;28;20048;-70
2023/10/16 01:56:49;;;;;;;9.88;2.90;;;;;;;16.98;47.92;99254.94;3158712;28;20134;-69
2023/10/16 01:58:22;;;;;;;10.48;2.50;;;;;;;16.98;47.85;99255.78;3157391;28;20051;-68
2023/10/16 01:59:53;;;;;;;6.85;3.25;;;;;;;16.94;48.12;99259.59;3157154;28;20135;-65
2023/10/16 02:01:26;;;;;;;10.10;2.45;;;;;;;16.95;47.83;99261.28;3157214;28;20051;-65
2023/10/16 02:02:57;;;;;;;8.88;2.38;;;;;;;16.94;47.72;99264.84;3157479;28;20119;-64
2023/10/16 02:04:29;;;;;;;3.42;2.35;;;;;;;16.92;47.80;99261.53;3157452;28;20048;-66
2023/10/16 02:06:01;;;;;;;7.75;2.40;;;;;;;16.90;47.90;99260.81;3157167;28;20093;-66
2023/10/16 02:07:33;;;;;;;6.03;2.58;;;;;;;16.83;47.75;99270.97;3157266;28;20075;-66
2023/10/16 02:09:12;;;;;;;7.40;2.67;;;;;;;16.85;47.83;99276.09;3157197;28;20043;-65
2023/10/16 02:10:46;;;;;;;6.28;2.08;;;;;;;16.85;47.63;99270.84;3156894;28;20070;-64
2023/10/16 02:12:16;;;;;;;7.28;2.38;;;;;;;16.84;47.82;99279.69;3157445;28;20467;-64
2023/10/16 02:13:48;;;;;;;4.82;2.03;;;;;;;16.83;47.60;99291.19;3156950;28;20048;-65
2023/10/16 02:15:21;;;;;;;5.30;2.30;;;;;;;16.81;47.61;99287.84;3157289;28;20476;-64
2023/10/16 02:16:53;;;;;;;3.92;2.55;;;;;;;16.79;47.68;99285.31;3151068;28;20044;-65
2023/10/16 02:18:27;;;;;;;12.25;2.25;;;;;;;16.79;47.49;99285.31;3153847;28;20405;-65
2023/10/16 02:19:58;;;;;;;7.25;2.33;;;;;;;16.75;47.52;99286.50;3151995;28;20083;-64
2023/10/16 02:21:31;;;;;;;4.90;2.20;;;;;;;16.74;47.55;99279.56;3153506;28;20154;-65
2023/10/16 02:23:03;;;;;;;3.58;2.00;;;;;;;16.75;47.44;99293.56;3156661;28;20051;-64
2023/10/16 02:24:37;;;;;;;4.85;2.45;;;;;;;16.71;47.38;99294.72;3157315;28;20112;-64
2023/10/16 02:26:10;;;;;;;3.78;2.10;;;;;;;16.69;47.37;99301.94;3156792;28;20095;-64
2023/10/16 02:27:41;;;;;;;7.07;1.80;;;;;;;16.64;47.10;99306.69;3156722;28;20542;-64
2023/10/16 02:29:15;;;;;;;5.75;1.88;;;;;;;16.62;47.00;99301.53;3157226;28;20052;-64
2023/10/16 02:30:49;;;;;;;2.30;1.58;;;;;;;16.64;46.94;99312.78;3157289;28;20076;-64
2023/10/16 02:32:22;;;;;;;5.47;1.60;;;;;;;16.64;46.81;99315.41;3156697;28;20109;-64
2023/10/16 02:34:12;;;;;;;;;;;;;;;16.44;46.98;99306.44;3157651;28;20048;-64
2023/10/16 02:35:47;;;;;;;6.85;1.67;;;;;;;16.48;46.96;99307.06;3155596;28;19955;-65
2023/10/16 02:37:20;;;;;;;6.40;1.70;;;;;;;16.52;46.83;99308.50;3153065;28;20055;-63
2023/10/16 02:38:55;;;;;;;4.82;1.67;;;;;;;16.50;46.49;99327.00;3157108;28;20505;-65
2023/10/16 02:40:26;;;;;;;5.03;1.48;;;;;;;16.49;46.57;99314.81;3156145;28;20442;-65
2023/10/16 02:41:59;;;;;;;9.20;1.30;;;;;;;16.53;46.57;99300.50;3156649;28;20059;-64
2023/10/16 02:43:31;;;;;;;5.15;1.20;;;;;;;16.53;46.16;99311.00;3157034;28;20048;-63
2023/10/16 02:45:04;;;;;;;5.20;1.30;;;;;;;16.53;46.33;99316.28;3156994;28;20050;-63
2023/10/16 02:46:36;;;;;;;4.47;1.50;;;;;;;16.51;45.96;99315.53;3156598;28;20528;-63
2023/10/16 02:48:09;;;;;;;1.65;0.95;;;;;;;16.52;45.96;99332.16;3156767;28;20056;-63
2023/10/16 02:49:47;;;;;;;3.45;1.38;;;;;;;16.48;45.88;99326.28;3154790;28;20071;-63
2023/10/16 02:51:20;;;;;;;5.07;1.33;;;;;;;16.50;46.00;99324.38;3145220;28;20064;-64
2023/10/16 02:52:52;;;;;;;10.20;1.33;;;;;;;16.47;45.73;99329.84;3144565;28;20052;-64
2023/10/16 02:54:24;;;;;;;15.45;1.30;;;;;;;16.44;45.70;99348.50;3156613;28;20052;-64
2023/10/16 02:56:05;;;;;;;4.47;1.05;;;;;;;16.45;45.26;99326.53;3158864;28;20059;-64
2023/10/16 02:57:40;;;;;;;8.52;1.10;;;;;;;16.46;45.18;99364.16;3160723;28;20059;-64
2023/10/16 02:59:11;;;;;;;8.90;1.27;;;;;;;16.48;45.45;99357.00;3147069;28;20102;-64
2023/10/16 03:00:49;;;;;;;3.15;0.80;;;;;;;16.49;45.13;99359.50;3157698;28;20062;-64
2023/10/16 03:02:22;;;;;;;5.80;0.80;;;;;;;16.48;45.13;99378.84;3159451;28;20056;-64
2023/10/16 03:03:54;;;;;;;1.67;0.77;;;;;;;16.43;45.04;99367.84;3159368;28;20134;-64
2023/10/16 03:05:26;;;;;;;7.50;1.05;;;;;;;16.40;45.12;99365.47;3158755;28;20132;-63
2023/10/16 03:06:59;;;;;;;5.32;0.90;;;;;;;16.41;45.05;99375.00;3158834;28;20422;-64
2023/10/16 03:08:29;;;;;;;13.23;0.95;;;;;;;16.39;44.97;99369.06;3159249;28;20055;-63
2023/10/16 03:10:02;;;;;;;3.45;0.88;;;;;;;16.40;45.20;99372.50;3158954;28;20051;-62
2023/10/16 03:11:34;;;;;;;13.73;0.70;;;;;;;16.34;45.09;99360.66;3158934;28;20052;-65
2023/10/16 03:13:06;;;;;;;7.72;0.63;;;;;;;16.36;45.05;99375.38;3153632;28;20052;-65
2023/10/16 03:14:46;;;;;;;3.03;0.73;;;;;;;16.31;45.00;99379.31;3152322;28;20043;-65
2023/10/16 03:16:22;;;;;;;15.18;0.82;;;;;;;16.30;45.10;99381.09;3156395;28;20453;-65
2023/10/16 03:17:54;;;;;;;6.88;0.80;;;;;;;16.31;45.02;99387.19;3151899;28;20506;-65
2023/10/16 03:19:28;;;;;;;7.38;1.05;;;;;;;16.28;45.00;99390.03;3156867;28;20114;-65
2023/10/16 03:21:07;;;;;;;11.65;2.15;;;;;;;16.24;45.21;99394.69;3154634;28;20546;-65
2023/10/16 03:22:38;;;;;;;5.20;0.90;;;;;;;16.21;45.24;99404.56;3148109;28;20752;-66
2023/10/16 03:24:10;;;;;;;14.90;1.85;;;;;;;16.14;45.39;99389.28;3159114;28;20058;-66
2023/10/16 03:25:50;;;;;;;21.35;1.67;;;;;;;16.07;45.81;99411.72;3148915;28;20049;-66
2023/10/16 03:27:28;;;;;;;23.52;1.67;;;;;;;16.00;45.82;99418.38;3146744;28;20432;-66
2023/10/16 03:29:02;;;;;;;25.70;1.95;;;;;;;15.95;45.89;99430.16;3146419;28;20056;-65
2023/10/16 03:30:34;;;;;;;24.30;1.73;;;;;;;15.89;46.17;99415.69;3146219;28;20511;-64
2023/10/16 03:32:05;;;;;;;17.45;1.15;;;;;;;15.83;46.09;99419.59;3158529;28;20052;-65
2023/10/16 03:33:37;;;;;;;16.88;1.70;;;;;;;15.77;46.42;99433.19;3159152;28;20074;-64
2023/10/16 03:35:09;;;;;;;28.48;1.35;;;;;;;15.72;46.63;99426.59;3159047;28;20071;-65
2023/10/16 03:36:41;;;;;;;12.15;1.50;;;;;;;15.69;46.58;99423.22;3158847;28;20460;-65
2023/10/16 03:38:24;;;;;;;14.38;1.90;;;;;;;15.65;46.98;99413.03;3158618;28;20196;-63
2023/10/16 03:40:03;;;;;;;18.55;1.40;;;;;;;15.61;47.17;99443.91;3159231;28;20052;-64
2023/10/16 03:41:39;;;;;;;11.30;2.28;;;;;;;15.57;47.30;99439.81;3156129;28;20082;-65
2023/10/16 03:43:11;;;;;;;30.63;2.25;;;;;;;15.53;47.60;99463.75;3146342;28;20506;-64
2023/10/16 03:44:43;;;;;;;32.97;2.47;;;;;;;15.46;47.83;99431.88;3158677;28;20052;-65
2023/10/16 03:46:15;;;;;;;23.50;2.15;;;;;;;15.40;47.83;99427.91;3158618;28;20052;-64
2023/10/16 03:47:50;;;;;;;27.40;2.50;;;;;;;15.37;47.78;99433.38;3157834;28;20196;-64
2023/10/16 03:49:21;;;;;;;17.15;2.13;;;;;;;15.31;47.93;99446.09;3156841;28;20055;-64
2023/10/16 03:50:55;;;;;;;11.85;2.25;;;;;;;15.28;48.18;99422.69;3151310;28;20097;-63
2023/10/16 03:52:27;;;;;;;15.85;2.70;;;;;;;15.21;47.96;99446.72;3155320;28;20190;-64
2023/10/16 03:53:58;;;;;;;514.35;27.13;;;;;;;15.05;48.26;99422.50;3158794;28;20052;-63
2023/10/16 03:55:32;;;;;;;17.00;2.20;;;;;;;15.04;48.49;99436.56;3158186;28;20447;-63
2023/10/16 03:57:09;;;;;;;28.45;2.60;;;;;;;14.97;48.91;99433.53;3160486;28;20113;-64
2023/10/16 03:58:42;;;;;;;22.48;3.47;;;;;;;14.93;48.68;99431.22;3159019;28;20055;-63
2023/10/16 04:00:15;;;;;;;17.55;2.55;;;;;;;14.89;48.94;99450.75;3156749;28;20056;-64
2023/10/16 04:01:47;;;;;;;31.75;2.83;;;;;;;14.83;49.02;99435.44;3145913;28;20052;-71
2023/10/16 04:03:18;;;;;;;26.50;2.40;;;;;;;14.78;49.16;99436.56;3150777;28;20359;-70
2023/10/16 04:04:53;;;;;;;11.23;2.50;;;;;;;14.74;49.42;99452.63;3158728;28;20046;-72
2023/10/16 04:06:26;;;;;;;8.18;2.45;;;;;;;14.69;49.51;99458.16;3148848;28;20086;-68
2023/10/16 04:07:57;;;;;;;17.27;2.58;;;;;;;14.65;49.71;99450.63;3158337;28;20150;-67
2023/10/16 04:09:32;;;;;;;13.90;3.70;;;;;;;14.67;49.36;99449.59;3153357;28;20056;-67
2023/10/16 04:11:07;;;;;;;18.88;2.75;;;;;;;14.67;49.34;99444.34;3158572;28;20577;-66
2023/10/16 04:12:43;;;;;;;20.58;3.20;;;;;;;14.64;49.64;99464.66;3158353;28;20052;-68
2023/10/16 04:14:15;;;;;;;12.88;2.10;;;;;;;14.65;49.48;99480.31;3158280;28;20521;-66
2023/10/16 04:17:38;;;;;;;17.75;5.30;;;;;;;14.62;49.37;99474.44;3147471;28;20147;-62
2023/10/16 04:20:56;;;;;;;22.05;3.58;;;;;;;14.56;49.89;99483.53;3147658;28;20567;-67
2023/10/16 04:22:43;;;;;;;17.85;3.17;;;;;;;14.55;49.46;99476.59;3153549;28;20040;-66
2023/10/16 04:24:30;;;;;;;28.52;10.13;;;;;;;14.54;49.59;99470.53;3155232;28;20513;-64
2023/10/16 04:28:09;;;;;;;13.18;3.28;;;;;;;14.50;49.71;99497.00;3158532;28;20488;-70
2023/10/16 04:29:46;;;;;;;11.25;2.72;;;;;;;14.46;49.63;99500.75;3158198;28;20552;-69
2023/10/16 04:31:43;;;;;;;14.35;3.00;;;;;;;14.47;49.49;99512.94;3158360;28;20051;-69
2023/10/16 04:33:23;;;;;;;9.30;2.65;;;;;;;14.41;49.69;99510.72;3145706;28;20114;-70
2023/10/16 04:34:54;;;;;;;13.90;2.80;;;;;;;14.42;49.50;99515.00;3153622;28;20199;-66
2023/10/16 04:38:30;;;;;;;9.57;2.92;;;;;;;14.42;49.66;99520.25;3136556;28;20549;-69
2023/10/16 04:47:48;;;;;;;46.60;20.90;;;;;;;14.43;49.49;99525.38;3148096;28;20124;-67
2023/10/16 04:49:19;;;;;;;18.80;7.40;;;;;;;14.47;49.39;99526.88;3155954;28;20147;-66
2023/10/16 04:51:09;;;;;;;14.20;3.25;;;;;;;14.52;49.20;99526.59;3157251;28;20493;-65
2023/10/16 04:55:02;;;;;;;10.63;2.15;;;;;;;14.48;48.85;99527.72;3179994;27;20504;-65
2023/10/16 04:58:47;;;;;;;12.18;2.78;;;;;;;14.46;48.45;99550.53;3163724;27;20560;-65
2023/10/16 05:02:33;;;;;;;12.38;2.22;;;;;;;14.46;48.30;99561.84;3171158;28;20116;-68
2023/10/16 05:06:05;;;;;;;11.98;2.30;;;;;;;14.49;47.86;99577.41;3155887;28;20410;-67
2023/10/16 05:07:53;;;;;;;17.00;2.47;;;;;;;14.48;48.02;99574.88;3180096;28;20580;-67
2023/10/16 05:11:27;;;;;;;8.07;2.40;;;;;;;14.46;47.83;99592.47;3148777;28;20635;-67
2023/10/16 05:16:38;;;;;;;12.18;2.13;;;;;;;14.48;47.22;99583.56;3180274;28;20051;-66
2023/10/16 05:18:19;;;;;;;21.10;2.47;;;;;;;14.51;47.01;99586.00;3180488;28;20043;-66
2023/10/16 05:19:54;;;;;;;12.00;2.42;;;;;;;14.52;47.27;99595.56;3171477;28;20117;-65
2023/10/16 05:22:02;;;;;;;10.48;2.20;;;;;;;14.51;46.95;99596.50;3174946;28;20537;-65
2023/10/16 06:15:02;;;;;;;16.10;2.50;;;;;;;14.27;44.97;99724.59;3171717;28;20048;-66
2023/10/16 06:16:34;;;;;;;25.05;2.28;;;;;;;14.29;44.71;99750.72;3168023;28;20053;-65
2023/10/16 06:18:07;;;;;;;30.55;2.80;;;;;;;14.25;44.28;99730.88;3154584;28;20076;-67
2023/10/16 06:19:42;;;;;;;25.77;2.28;;;;;;;14.25;44.33;99747.44;3167581;28;20056;-66
2023/10/16 06:21:15;;;;;;;17.35;2.10;;;;;;;14.26;44.39;99748.28;3168920;28;20059;-65
2023/10/16 06:22:51;;;;;;;23.33;2.42;;;;;;;14.26;44.16;99751.75;3169396;28;20082;-66
2023/10/16 06:24:26;;;;;;;23.38;2.05;;;;;;;14.29;44.13;99753.34;3154568;28;20044;-66
2023/10/16 06:26:02;;;;;;;26.55;2.40;;;;;;;14.27;44.12;99753.41;3152680;28;20041;-66
2023/10/16 06:27:33;;;;;;;17.48;2.20;;;;;;;14.31;43.96;99762.75;3158101;28;20455;-66
2023/10/16 06:29:05;;;;;;;20.90;1.90;;;;;;;14.31;43.55;99765.38;3164710;28;20067;-65
2023/10/16 06:30:38;;;;;;;14.27;2.10;;;;;;;14.30;43.56;99771.56;3171438;28;20476;-65
2023/10/16 06:32:18;;;;;;;7.15;1.90;;;;;;;14.31;43.70;99767.16;3169185;28;20112;-66
2023/10/16 06:33:54;;;;;;;9.77;1.83;;;;;;;14.33;43.41;99775.78;3163554;28;20448;-65
2023/10/16 06:35:25;;;;;;;9.10;1.90;;;;;;;14.34;43.60;99788.81;3171251;28;20498;-66
2023/10/16 06:36:57;;;;;;;8.63;2.33;;;;;;;14.38;43.49;99778.13;3171325;27;20466;-65
2023/10/16 06:38:29;;;;;;;15.43;2.20;;;;;;;14.43;43.28;99792.59;3170746;28;20101;-66
2023/10/16 06:40:04;;;;;;;16.65;2.58;;;;;;;14.43;43.42;99797.00;3171004;28;20054;-68
2023/10/16 06:41:49;;;;;;;29.48;2.40;;;;;;;14.43;42.93;99786.53;3150197;28;20517;-68
2023/10/16 06:43:25;;;;;;;12.85;2.40;;;;;;;14.41;43.15;99797.13;3164477;28;20192;-67
2023/10/16 06:45:07;;;;;;;29.30;2.05;;;;;;;14.42;42.86;99801.41;3171065;28;20065;-67
2023/10/16 06:46:39;;;;;;;15.40;1.73;;;;;;;14.40;42.58;99795.41;3170975;28;20138;-66
2023/10/16 06:48:15;;;;;;;18.13;2.58;;;;;;;14.43;42.70;99805.72;3164860;28;20044;-65
2023/10/16 06:49:47;;;;;;;22.15;1.88;;;;;;;14.41;42.61;99807.59;3170844;28;20465;-65
2023/10/16 06:51:18;;;;;;;14.45;2.17;;;;;;;14.42;42.23;99801.41;3171088;28;20055;-67
2023/10/16 06:52:51;;;;;;;10.52;2.28;;;;;;;14.43;42.38;99812.72;3160625;28;20417;-66
2023/10/16 06:54:23;;;;;;;10.55;1.40;;;;;;;14.40;42.23;99815.53;3157457;28;20063;-65
2023/10/16 06:55:53;;;;;;;10.57;1.77;;;;;;;14.37;41.57;99806.09;3157223;28;20456;-66
2023/10/16 06:57:25;;;;;;;19.13;1.60;;;;;;;14.37;41.90;99807.88;3159127;28;20047;-66
2023/10/16 06:58:57;;;;;;;13.43;1.23;;;;;;;14.40;41.71;99816.38;3159528;28;20135;-66
2023/10/16 07:00:32;;;;;;;10.00;1.90;;;;;;;14.42;41.88;99811.06;3162751;28;20134;-66
2023/10/16 07:02:03;;;;;;;18.23;1.88;;;;;;;14.46;41.75;99809.94;3170652;28;20120;-66
2023/10/16 07:03:39;;;;;;;8.77;1.48;;;;;;;14.49;41.71;99821.09;3153245;28;20051;-67
2023/10/16 07:05:13;;;;;;;20.70;2.35;;;;;;;14.47;41.45;99822.09;3167818;28;20071;-67
2023/10/16 07:06:48;;;;;;;14.82;1.95;;;;;;;14.44;41.24;99836.25;3161391;28;20572;-67
2023/10/16 07:08:22;;;;;;;12.45;2.38;;;;;;;14.52;41.16;99825.31;3170558;28;20138;-67
2023/10/16 07:09:54;;;;;;;7.45;1.52;;;;;;;14.49;41.04;99822.84;3170658;28;20082;-67
2023/10/16 07:11:25;;;;;;;9.10;1.77;;;;;;;14.51;41.19;99836.69;3156508;28;20117;-67
2023/10/16 07:12:58;;;;;;;9.88;1.90;;;;;;;14.53;40.74;99830.47;3170813;28;20051;-67
2023/10/16 07:14:30;;;;;;;7.75;1.35;;;;;;;14.49;40.66;99826.31;3170920;28;20481;-67
2023/10/16 07:16:04;;;;;;;12.27;1.80;;;;;;;14.48;40.07;99836.88;3171080;28;20055;-67
2023/10/16 07:17:34;;;;;;;;;;;;;;;14.34;40.49;99848.19;3166754;28;20051;-67
2023/10/16 07:19:08;;;;;;;22.88;2.63;;;;;;;14.43;40.20;99854.66;3170262;28;20064;-67
2023/10/16 07:20:53;;;;;;;13.68;1.83;;;;;;;14.48;40.58;99856.06;3170740;28;20588;-67
2023/10/16 07:22:31;;;;;;;18.25;1.73;;;;;;;14.44;40.23;99861.59;3170705;28;20047;-67
2023/10/16 07:24:03;;;;;;;24.23;1.88;;;;;;;14.52;40.28;99875.09;3153631;28;20048;-68
2023/10/16 07:25:47;;;;;;;9.25;1.08;;;;;;;14.52;40.00;99870.72;3162121;28;20055;-67
2023/10/16 07:27:19;;;;;;;20.27;1.83;;;;;;;14.51;40.04;99879.50;3170739;28;20063;-67
2023/10/16 07:28:50;;;;;;;11.23;1.73;;;;;;;14.53;39.66;99888.13;3170611;28;20051;-68
2023/10/16 07:30:22;;;;;;;13.98;1.52;;;;;;;14.54;39.37;99883.72;3170331;28;20089;-66
2023/10/16 07:31:55;;;;;;;3.67;1.50;;;;;;;14.54;39.58;99881.09;3169402;28;20105;-67
2023/10/16 07:33:27;;;;;;;13.15;1.48;;;;;;;14.56;39.46;99889.72;3166589;28;20526;-68
2023/10/16 07:35:00;;;;;;;23.85;10.68;;;;;;;14.61;39.48;99894.66;3162075;28;20111;-70
2023/10/16 07:36:32;;;;;;;;;;;;;;;14.49;39.35;99897.06;3162808;28;20075;-71
2023/10/16 07:38:05;;;;;;;7.05;2.28;;;;;;;14.59;39.30;99897.38;3158374;28;19967;-71
2023/10/16 07:39:37;;;;;;;9.68;1.80;;;;;;;14.61;38.56;99900.78;3168637;28;20104;-68
2023/10/16 07:41:09;;;;;;;11.43;2.00;;;;;;;14.57;38.17;99888.78;3151427;28;20056;-73
2023/10/16 07:42:41;;;;;;;15.60;1.70;;;;;;;14.59;38.65;99891.31;3166570;28;20051;-69
2023/10/16 07:44:13;;;;;;;7.72;1.35;;;;;;;14.62;38.37;99885.88;3163525;28;20570;-69
2023/10/16 07:45:45;;;;;;;9.63;1.92;;;;;;;14.59;38.29;99868.56;3167075;28;20447;-70
2023/10/16 07:47:18;;;;;;;11.77;1.42;;;;;;;14.62;38.13;99885.88;3161865;28;20410;-68
2023/10/16 07:48:50;;;;;;;11.90;1.92;;;;;;;14.55;37.97;99877.53;3163990;28;20466;-69
2023/10/16 07:50:24;;;;;;;9.13;1.63;;;;;;;14.65;37.92;99889.16;3169734;28;20039;-69
2023/10/16 07:51:59;;;;;;;7.13;1.30;;;;;;;14.59;37.81;99872.97;3170320;28;20047;-69
2023/10/16 07:53:32;;;;;;;20.17;1.60;;;;;;;14.69;37.70;99895.88;3162908;28;20131;-68
2023/10/16 07:55:04;;;;;;;7.03;1.63;;;;;;;14.74;37.67;99895.63;3160590;28;20100;-68
2023/10/16 07:56:38;;;;;;;14.23;1.58;;;;;;;14.76;37.44;99899.84;3151299;28;20050;-67
2023/10/16 07:58:15;;;;;;;12.23;1.83;;;;;;;14.76;37.45;99899.84;3160909;28;20044;-67
2023/10/16 07:59:47;;;;;;;9.75;1.30;;;;;;;14.75;37.61;99899.91;3169931;28;20055;-67
2023/10/16 08:01:32;;;;;;;11.57;1.38;;;;;;;14.77;37.48;99901.50;3165836;28;20059;-69
2023/10/16 08:03:05;;;;;;;10.70;1.67;;;;;;;14.75;37.22;99886.81;3169975;28;20076;-66
2023/10/16 08:04:36;;;;;;;;;;;;;;;14.67;37.56;99891.66;3170776;28;20073;-65
2023/10/16 08:06:12;;;;;;;16.00;1.90;;;;;;;14.75;36.85;99898.13;3161141;28;20530;-67
2023/10/16 08:07:47;;;;;;;10.80;1.80;;;;;;;14.81;36.79;99903.94;3169549;28;20053;-68
2023/10/16 08:09:48;;;;;;;5.78;1.70;;;;;;;14.81;36.42;99885.59;3170110;28;20495;-68
2023/10/16 08:11:19;;;;;;;9.20;1.30;;;;;;;14.79;36.30;99911.91;3164284;28;20073;-69
2023/10/16 08:12:50;;;;;;;9.45;1.17;;;;;;;14.85;36.51;99897.56;3169958;28;20043;-69
2023/10/16 08:14:22;;;;;;;4.32;0.90;;;;;;;14.86;35.93;99896.66;3169364;28;20054;-68
2023/10/16 08:15:55;;;;;;;12.93;1.27;;;;;;;14.89;36.00;99896.47;3165637;28;20056;-68
2023/10/16 08:17:28;;;;;;;5.43;1.33;;;;;;;14.89;35.92;99899.91;3170035;28;20062;-68
2023/10/16 08:19:24;;;;;;;8.95;1.60;;;;;;;14.90;35.55;99892.88;3169981;28;20051;-68
2023/10/16 08:21:06;;;;;;;7.38;2.13;;;;;;;14.89;35.26;99878.09;3169964;28;20055;-67
2023/10/16 08:22:44;;;;;;;13.52;2.25;;;;;;;14.90;35.57;99891.09;3170074;28;20090;-66
2023/10/16 08:24:24;;;;;;;9.45;1.80;;;;;;;14.96;35.39;99905.63;3154130;28;20044;-66
2023/10/16 08:26:00;;;;;;;11.02;1.40;;;;;;;14.97;35.10;99895.06;3150000;28;20402;-66
2023/10/16 08:27:49;;;;;;;8.73;1.35;;;;;;;15.02;35.25;99900.00;3154297;28;20070;-67
2023/10/16 08:29:34;;;;;;;11.77;1.30;;;;;;;15.01;34.87;99903.56;3169292;28;20047;-67
2023/10/16 08:31:35;;;;;;;9.88;1.30;;;;;;;15.08;34.73;99898.78;3165937;28;20054;-67
2023/10/16 08:33:19;;;;;;;15.75;1.60;;;;;;;15.12;34.80;99901.13;3158693;28;20052;-67
2023/10/16 08:34:59;;;;;;;17.67;1.73;;;;;;;15.22;34.65;99909.25;3169142;28;20067;-66
2023/10/16 08:36:31;;;;;;;11.90;1.38;;;;;;;15.28;34.57;99910.66;3169952;28;20052;-69
2023/10/16 08:38:10;;;;;;;10.13;1.20;;;;;;;15.31;34.36;99897.34;3163259;28;20189;-68
2023/10/16 08:39:48;;;;;;;8.02;1.20;;;;;;;15.36;34.61;99895.28;3169433;28;20135;-68
2023/10/16 08:41:30;;;;;;;7.78;1.17;;;;;;;15.46;34.43;99904.22;3157455;28;20044;-68
2023/10/16 08:43:04;;;;;;;8.13;1.48;;;;;;;15.50;34.29;99910.13;3168763;28;20051;-66
2023/10/16 08:44:37;;;;;;;16.52;1.40;;;;;;;15.54;33.90;99901.13;3166285;28;20445;-68